sensor_id;sensor_type;location;lat;lon;timestamp;P1;durP1;ratioP1;P2;durP2;ratioP2
21297;SDS011;10808;48.010;11.326;2024-02-21T00:01:03;6.38;;;2.85;;
21297;SDS011;10808;48.010;11.326;2024-02-21T00:03:29;7.65;;;2.97;;
21297;SDS011;10808;48.010;11.326;2024-02-21T00:05:55;8.63;;;2.90;;
21297;SDS011;10808;48.010;11.326;2024-02-21T00:08:21;6.57;;;2.83;;
21297;SDS011;10808;48.010;11.326;2024-02-21T00:10:47;9.10;;;3.30;;
21297;SDS011;10808;48.010;11.326;2024-02-21T00:13:14;7.07;;;2.47;;
21297;SDS011;10808;48.010;11.326;2024-02-21T00:15:40;5.90;;;2.80;;
21297;SDS011;10808;48.010;11.326;2024-02-21T00:18:06;7.50;;;2.90;;
21297;SDS011;10808;48.010;11.326;2024-02-21T00:20:32;6.38;;;2.63;;
21297;SDS011;10808;48.010;11.326;2024-02-21T00:22:58;7.25;;;2.75;;
21297;SDS011;10808;48.010;11.326;2024-02-21T00:25:24;8.23;;;3.35;;
21297;SDS011;10808;48.010;11.326;2024-02-21T00:27:50;7.80;;;3.25;;
21297;SDS011;10808;48.010;11.326;2024-02-21T00:30:16;5.93;;;2.90;;
21297;SDS011;10808;48.010;11.326;2024-02-21T00:32:42;6.85;;;3.00;;
21297;SDS011;10808;48.010;11.326;2024-02-21T00:35:08;6.23;;;2.80;;
21297;SDS011;10808;48.010;11.326;2024-02-21T00:37:35;6.10;;;2.63;;
21297;SDS011;10808;48.010;11.326;2024-02-21T00:40:01;5.32;;;2.58;;
21297;SDS011;10808;48.010;11.326;2024-02-21T00:42:27;7.60;;;2.60;;
21297;SDS011;10808;48.010;11.326;2024-02-21T00:44:53;4.45;;;2.60;;
21297;SDS011;10808;48.010;11.326;2024-02-21T00:47:19;6.20;;;2.90;;
21297;SDS011;10808;48.010;11.326;2024-02-21T00:49:45;5.97;;;2.77;;
21297;SDS011;10808;48.010;11.326;2024-02-21T00:52:11;8.55;;;3.40;;
21297;SDS011;10808;48.010;11.326;2024-02-21T00:54:37;8.40;;;3.70;;
21297;SDS011;10808;48.010;11.326;2024-02-21T00:57:03;8.13;;;3.70;;
21297;SDS011;10808;48.010;11.326;2024-02-21T00:59:29;7.53;;;3.53;;
21297;SDS011;10808;48.010;11.326;2024-02-21T01:01:55;7.15;;;3.13;;
21297;SDS011;10808;48.010;11.326;2024-02-21T01:04:21;5.97;;;3.05;;
21297;SDS011;10808;48.010;11.326;2024-02-21T01:06:50;5.05;;;2.60;;
21297;SDS011;10808;48.010;11.326;2024-02-21T01:09:16;5.18;;;2.70;;
21297;SDS011;10808;48.010;11.326;2024-02-21T01:11:42;7.80;;;2.55;;
21297;SDS011;10808;48.010;11.326;2024-02-21T01:14:08;5.32;;;2.33;;
21297;SDS011;10808;48.010;11.326;2024-02-21T01:16:34;4.85;;;2.60;;
21297;SDS011;10808;48.010;11.326;2024-02-21T01:19:00;5.07;;;2.40;;
21297;SDS011;10808;48.010;11.326;2024-02-21T01:21:26;5.55;;;2.65;;
21297;SDS011;10808;48.010;11.326;2024-02-21T01:23:52;4.47;;;2.53;;
21297;SDS011;10808;48.010;11.326;2024-02-21T01:26:18;8.05;;;2.47;;
21297;SDS011;10808;48.010;11.326;2024-02-21T01:28:44;5.25;;;2.30;;
21297;SDS011;10808;48.010;11.326;2024-02-21T01:31:10;8.05;;;2.80;;
21297;SDS011;10808;48.010;11.326;2024-02-21T01:33:36;3.60;;;2.50;;
21297;SDS011;10808;48.010;11.326;2024-02-21T01:36:04;4.45;;;2.55;;
21297;SDS011;10808;48.010;11.326;2024-02-21T01:38:33;4.53;;;2.50;;
21297;SDS011;10808;48.010;11.326;2024-02-21T01:41:00;4.28;;;2.40;;
21297;SDS011;10808;48.010;11.326;2024-02-21T01:43:26;5.93;;;2.50;;
21297;SDS011;10808;48.010;11.326;2024-02-21T01:45:52;4.47;;;2.40;;
21297;SDS011;10808;48.010;11.326;2024-02-21T01:48:23;4.80;;;2.72;;
21297;SDS011;10808;48.010;11.326;2024-02-21T01:50:50;4.82;;;2.28;;
21297;SDS011;10808;48.010;11.326;2024-02-21T01:53:21;3.60;;;1.98;;
21297;SDS011;10808;48.010;11.326;2024-02-21T01:55:50;3.40;;;2.40;;
21297;SDS011;10808;48.010;11.326;2024-02-21T01:58:17;4.50;;;2.38;;
21297;SDS011;10808;48.010;11.326;2024-02-21T02:00:45;4.28;;;2.22;;
21297;SDS011;10808;48.010;11.326;2024-02-21T02:03:13;5.38;;;2.25;;
21297;SDS011;10808;48.010;11.326;2024-02-21T02:05:43;5.15;;;2.40;;
21297;SDS011;10808;48.010;11.326;2024-02-21T02:08:16;4.88;;;2.70;;
21297;SDS011;10808;48.010;11.326;2024-02-21T02:10:44;3.90;;;2.30;;
21297;SDS011;10808;48.010;11.326;2024-02-21T02:13:11;3.55;;;2.10;;
21297;SDS011;10808;48.010;11.326;2024-02-21T02:15:38;7.20;;;2.80;;
21297;SDS011;10808;48.010;11.326;2024-02-21T02:18:04;5.22;;;2.40;;
21297;SDS011;10808;48.010;11.326;2024-02-21T02:20:30;5.72;;;2.78;;
21297;SDS011;10808;48.010;11.326;2024-02-21T02:22:57;5.57;;;2.45;;
21297;SDS011;10808;48.010;11.326;2024-02-21T02:25:25;4.70;;;2.33;;
21297;SDS011;10808;48.010;11.326;2024-02-21T02:27:52;3.30;;;2.20;;
21297;SDS011;10808;48.010;11.326;2024-02-21T02:30:19;5.25;;;2.38;;
21297;SDS011;10808;48.010;11.326;2024-02-21T02:32:45;6.35;;;2.10;;
21297;SDS011;10808;48.010;11.326;2024-02-21T02:35:14;5.43;;;2.00;;
21297;SDS011;10808;48.010;11.326;2024-02-21T02:37:40;4.07;;;2.22;;
21297;SDS011;10808;48.010;11.326;2024-02-21T02:40:12;3.57;;;2.10;;
21297;SDS011;10808;48.010;11.326;2024-02-21T02:42:39;4.63;;;2.10;;
21297;SDS011;10808;48.010;11.326;2024-02-21T02:45:05;3.33;;;1.90;;
21297;SDS011;10808;48.010;11.326;2024-02-21T02:47:32;4.22;;;2.20;;
21297;SDS011;10808;48.010;11.326;2024-02-21T02:50:00;4.03;;;2.20;;
21297;SDS011;10808;48.010;11.326;2024-02-21T02:52:26;3.88;;;2.10;;
21297;SDS011;10808;48.010;11.326;2024-02-21T02:54:52;3.05;;;2.10;;
21297;SDS011;10808;48.010;11.326;2024-02-21T02:57:21;3.25;;;1.90;;
21297;SDS011;10808;48.010;11.326;2024-02-21T02:59:50;4.15;;;1.80;;
21297;SDS011;10808;48.010;11.326;2024-02-21T03:02:16;3.90;;;2.28;;
21297;SDS011;10808;48.010;11.326;2024-02-21T03:04:43;3.30;;;1.80;;
21297;SDS011;10808;48.010;11.326;2024-02-21T03:07:10;3.33;;;1.85;;
21297;SDS011;10808;48.010;11.326;2024-02-21T03:09:39;4.22;;;1.80;;
21297;SDS011;10808;48.010;11.326;2024-02-21T03:12:06;3.42;;;1.90;;
21297;SDS011;10808;48.010;11.326;2024-02-21T03:14:32;3.15;;;2.00;;
21297;SDS011;10808;48.010;11.326;2024-02-21T03:16:58;3.47;;;1.90;;
21297;SDS011;10808;48.010;11.326;2024-02-21T03:19:25;3.85;;;1.90;;
21297;SDS011;10808;48.010;11.326;2024-02-21T03:21:51;3.70;;;1.80;;
21297;SDS011;10808;48.010;11.326;2024-02-21T03:24:18;3.50;;;1.75;;
21297;SDS011;10808;48.010;11.326;2024-02-21T03:26:44;5.13;;;1.90;;
21297;SDS011;10808;48.010;11.326;2024-02-21T03:29:14;4.45;;;2.00;;
21297;SDS011;10808;48.010;11.326;2024-02-21T03:31:40;3.30;;;1.80;;
21297;SDS011;10808;48.010;11.326;2024-02-21T03:34:07;3.55;;;1.70;;
21297;SDS011;10808;48.010;11.326;2024-02-21T03:36:33;3.00;;;1.60;;
21297;SDS011;10808;48.010;11.326;2024-02-21T03:38:59;3.30;;;1.90;;
21297;SDS011;10808;48.010;11.326;2024-02-21T03:41:26;2.90;;;1.98;;
21297;SDS011;10808;48.010;11.326;2024-02-21T03:43:52;2.58;;;1.75;;
21297;SDS011;10808;48.010;11.326;2024-02-21T03:46:18;3.30;;;1.80;;
21297;SDS011;10808;48.010;11.326;2024-02-21T03:48:45;3.05;;;1.80;;
21297;SDS011;10808;48.010;11.326;2024-02-21T03:51:11;3.97;;;1.90;;
21297;SDS011;10808;48.010;11.326;2024-02-21T03:53:37;4.18;;;1.77;;
21297;SDS011;10808;48.010;11.326;2024-02-21T03:56:03;3.90;;;1.85;;
21297;SDS011;10808;48.010;11.326;2024-02-21T03:58:30;4.22;;;1.73;;
21297;SDS011;10808;48.010;11.326;2024-02-21T04:00:56;3.67;;;1.70;;
21297;SDS011;10808;48.010;11.326;2024-02-21T04:03:22;3.17;;;1.58;;
21297;SDS011;10808;48.010;11.326;2024-02-21T04:05:48;3.55;;;1.67;;
21297;SDS011;10808;48.010;11.326;2024-02-21T04:08:14;3.13;;;1.70;;
21297;SDS011;10808;48.010;11.326;2024-02-21T04:10:40;3.17;;;1.50;;
21297;SDS011;10808;48.010;11.326;2024-02-21T04:13:06;3.00;;;1.60;;
21297;SDS011;10808;48.010;11.326;2024-02-21T04:15:33;2.85;;;1.60;;
21297;SDS011;10808;48.010;11.326;2024-02-21T04:17:59;2.77;;;1.60;;
21297;SDS011;10808;48.010;11.326;2024-02-21T04:20:25;4.57;;;1.52;;
21297;SDS011;10808;48.010;11.326;2024-02-21T04:22:51;3.25;;;1.50;;
21297;SDS011;10808;48.010;11.326;2024-02-21T04:25:17;2.37;;;1.40;;
21297;SDS011;10808;48.010;11.326;2024-02-21T04:27:44;1.60;;;1.30;;
21297;SDS011;10808;48.010;11.326;2024-02-21T04:30:10;2.10;;;1.35;;
21297;SDS011;10808;48.010;11.326;2024-02-21T04:32:36;2.47;;;1.20;;
21297;SDS011;10808;48.010;11.326;2024-02-21T04:35:03;3.40;;;1.30;;
21297;SDS011;10808;48.010;11.326;2024-02-21T04:37:29;1.80;;;1.30;;
21297;SDS011;10808;48.010;11.326;2024-02-21T04:39:56;2.03;;;1.38;;
21297;SDS011;10808;48.010;11.326;2024-02-21T04:42:22;2.67;;;1.40;;
21297;SDS011;10808;48.010;11.326;2024-02-21T04:44:48;2.00;;;1.10;;
21297;SDS011;10808;48.010;11.326;2024-02-21T04:47:14;3.05;;;1.10;;
21297;SDS011;10808;48.010;11.326;2024-02-21T04:49:40;1.77;;;1.20;;
21297;SDS011;10808;48.010;11.326;2024-02-21T04:52:06;1.60;;;1.30;;
21297;SDS011;10808;48.010;11.326;2024-02-21T04:54:32;1.52;;;1.25;;
21297;SDS011;10808;48.010;11.326;2024-02-21T04:57:00;1.90;;;1.30;;
21297;SDS011;10808;48.010;11.326;2024-02-21T04:59:26;4.13;;;1.50;;
21297;SDS011;10808;48.010;11.326;2024-02-21T05:01:52;2.67;;;1.42;;
21297;SDS011;10808;48.010;11.326;2024-02-21T05:04:18;2.72;;;1.75;;
21297;SDS011;10808;48.010;11.326;2024-02-21T05:06:44;3.08;;;1.50;;
21297;SDS011;10808;48.010;11.326;2024-02-21T05:09:10;2.80;;;1.38;;
21297;SDS011;10808;48.010;11.326;2024-02-21T05:11:37;2.47;;;1.40;;
21297;SDS011;10808;48.010;11.326;2024-02-21T05:14:03;2.83;;;1.42;;
21297;SDS011;10808;48.010;11.326;2024-02-21T05:16:30;2.00;;;1.30;;
21297;SDS011;10808;48.010;11.326;2024-02-21T05:18:56;2.33;;;1.30;;
21297;SDS011;10808;48.010;11.326;2024-02-21T05:21:23;2.10;;;1.20;;
21297;SDS011;10808;48.010;11.326;2024-02-21T05:23:50;3.13;;;1.40;;
21297;SDS011;10808;48.010;11.326;2024-02-21T05:26:20;1.50;;;1.20;;
21297;SDS011;10808;48.010;11.326;2024-02-21T05:28:47;2.25;;;1.00;;
21297;SDS011;10808;48.010;11.326;2024-02-21T05:31:13;2.55;;;1.20;;
21297;SDS011;10808;48.010;11.326;2024-02-21T05:33:39;3.30;;;1.20;;
21297;SDS011;10808;48.010;11.326;2024-02-21T05:36:06;1.77;;;1.10;;
21297;SDS011;10808;48.010;11.326;2024-02-21T05:38:32;2.95;;;1.30;;
21297;SDS011;10808;48.010;11.326;2024-02-21T05:40:58;2.60;;;1.20;;
21297;SDS011;10808;48.010;11.326;2024-02-21T05:43:24;4.32;;;1.10;;
21297;SDS011;10808;48.010;11.326;2024-02-21T05:45:50;2.13;;;1.10;;
21297;SDS011;10808;48.010;11.326;2024-02-21T05:48:16;2.33;;;1.27;;
21297;SDS011;10808;48.010;11.326;2024-02-21T05:50:42;1.30;;;1.00;;
21297;SDS011;10808;48.010;11.326;2024-02-21T05:53:08;1.27;;;1.10;;
21297;SDS011;10808;48.010;11.326;2024-02-21T05:55:35;1.52;;;1.08;;
21297;SDS011;10808;48.010;11.326;2024-02-21T05:58:01;2.00;;;1.02;;
21297;SDS011;10808;48.010;11.326;2024-02-21T06:00:28;2.40;;;1.02;;
21297;SDS011;10808;48.010;11.326;2024-02-21T06:02:55;2.33;;;1.25;;
21297;SDS011;10808;48.010;11.326;2024-02-21T06:05:21;1.75;;;1.15;;
21297;SDS011;10808;48.010;11.326;2024-02-21T06:07:47;1.65;;;1.10;;
21297;SDS011;10808;48.010;11.326;2024-02-21T06:10:13;2.10;;;1.20;;
21297;SDS011;10808;48.010;11.326;2024-02-21T06:12:39;1.65;;;1.10;;
21297;SDS011;10808;48.010;11.326;2024-02-21T06:15:05;1.42;;;0.98;;
21297;SDS011;10808;48.010;11.326;2024-02-21T06:17:31;1.85;;;1.17;;
21297;SDS011;10808;48.010;11.326;2024-02-21T06:19:57;1.70;;;1.10;;
21297;SDS011;10808;48.010;11.326;2024-02-21T06:22:23;3.47;;;1.20;;
21297;SDS011;10808;48.010;11.326;2024-02-21T06:24:50;1.60;;;1.10;;
21297;SDS011;10808;48.010;11.326;2024-02-21T06:27:16;1.65;;;1.10;;
21297;SDS011;10808;48.010;11.326;2024-02-21T06:29:42;1.67;;;1.10;;
21297;SDS011;10808;48.010;11.326;2024-02-21T06:32:08;1.17;;;1.08;;
21297;SDS011;10808;48.010;11.326;2024-02-21T06:34:34;3.17;;;1.17;;
21297;SDS011;10808;48.010;11.326;2024-02-21T06:37:00;1.40;;;1.00;;
21297;SDS011;10808;48.010;11.326;2024-02-21T06:39:26;2.75;;;1.23;;
21297;SDS011;10808;48.010;11.326;2024-02-21T06:41:56;1.58;;;1.13;;
21297;SDS011;10808;48.010;11.326;2024-02-21T06:44:22;6.25;;;4.13;;
21297;SDS011;10808;48.010;11.326;2024-02-21T06:46:48;5.38;;;3.25;;
21297;SDS011;10808;48.010;11.326;2024-02-21T06:49:14;4.95;;;2.40;;
21297;SDS011;10808;48.010;11.326;2024-02-21T06:51:44;5.60;;;2.47;;
21297;SDS011;10808;48.010;11.326;2024-02-21T06:54:10;3.00;;;1.70;;
21297;SDS011;10808;48.010;11.326;2024-02-21T06:56:37;3.10;;;1.90;;
21297;SDS011;10808;48.010;11.326;2024-02-21T06:59:03;2.47;;;1.55;;
21297;SDS011;10808;48.010;11.326;2024-02-21T07:01:29;2.80;;;1.20;;
21297;SDS011;10808;48.010;11.326;2024-02-21T07:03:56;2.75;;;1.30;;
21297;SDS011;10808;48.010;11.326;2024-02-21T07:06:22;1.30;;;1.10;;
21297;SDS011;10808;48.010;11.326;2024-02-21T07:08:48;2.15;;;1.10;;
21297;SDS011;10808;48.010;11.326;2024-02-21T07:11:14;1.63;;;1.20;;
21297;SDS011;10808;48.010;11.326;2024-02-21T07:13:40;2.80;;;1.23;;
21297;SDS011;10808;48.010;11.326;2024-02-21T07:16:07;2.28;;;1.40;;
21297;SDS011;10808;48.010;11.326;2024-02-21T07:18:33;1.70;;;1.30;;
21297;SDS011;10808;48.010;11.326;2024-02-21T07:20:59;1.40;;;1.08;;
21297;SDS011;10808;48.010;11.326;2024-02-21T07:23:25;3.38;;;1.50;;
21297;SDS011;10808;48.010;11.326;2024-02-21T07:25:51;2.05;;;1.20;;
21297;SDS011;10808;48.010;11.326;2024-02-21T07:28:17;1.90;;;1.10;;
21297;SDS011;10808;48.010;11.326;2024-02-21T07:30:43;1.27;;;1.10;;
21297;SDS011;10808;48.010;11.326;2024-02-21T07:33:09;2.10;;;1.20;;
21297;SDS011;10808;48.010;11.326;2024-02-21T07:35:35;2.70;;;1.10;;
21297;SDS011;10808;48.010;11.326;2024-02-21T07:38:03;2.55;;;1.15;;
21297;SDS011;10808;48.010;11.326;2024-02-21T07:40:30;2.10;;;1.10;;
21297;SDS011;10808;48.010;11.326;2024-02-21T07:42:56;2.30;;;1.10;;
21297;SDS011;10808;48.010;11.326;2024-02-21T07:45:22;2.80;;;1.00;;
21297;SDS011;10808;48.010;11.326;2024-02-21T07:47:50;2.72;;;1.05;;
21297;SDS011;10808;48.010;11.326;2024-02-21T07:50:16;1.52;;;1.02;;
21297;SDS011;10808;48.010;11.326;2024-02-21T07:52:42;3.30;;;1.00;;
21297;SDS011;10808;48.010;11.326;2024-02-21T07:55:09;1.43;;;1.10;;
21297;SDS011;10808;48.010;11.326;2024-02-21T07:57:36;1.63;;;0.98;;
21297;SDS011;10808;48.010;11.326;2024-02-21T08:00:02;0.95;;;0.80;;
21297;SDS011;10808;48.010;11.326;2024-02-21T08:02:33;1.60;;;0.98;;
21297;SDS011;10808;48.010;11.326;2024-02-21T08:04:59;1.70;;;0.90;;
21297;SDS011;10808;48.010;11.326;2024-02-21T08:07:25;2.63;;;0.90;;
21297;SDS011;10808;48.010;11.326;2024-02-21T08:09:54;1.50;;;0.93;;
21297;SDS011;10808;48.010;11.326;2024-02-21T08:12:20;1.98;;;1.30;;
21297;SDS011;10808;48.010;11.326;2024-02-21T08:14:46;1.98;;;1.13;;
21297;SDS011;10808;48.010;11.326;2024-02-21T08:17:12;1.38;;;1.20;;
21297;SDS011;10808;48.010;11.326;2024-02-21T08:19:38;1.50;;;0.90;;
21297;SDS011;10808;48.010;11.326;2024-02-21T08:22:04;1.13;;;0.90;;
21297;SDS011;10808;48.010;11.326;2024-02-21T08:24:30;1.60;;;1.00;;
21297;SDS011;10808;48.010;11.326;2024-02-21T08:26:56;1.00;;;0.85;;
21297;SDS011;10808;48.010;11.326;2024-02-21T08:29:22;2.70;;;0.80;;
21297;SDS011;10808;48.010;11.326;2024-02-21T08:31:48;1.08;;;0.98;;
21297;SDS011;10808;48.010;11.326;2024-02-21T08:34:14;1.58;;;1.00;;
21297;SDS011;10808;48.010;11.326;2024-02-21T08:36:40;1.67;;;1.00;;
21297;SDS011;10808;48.010;11.326;2024-02-21T08:39:06;1.48;;;0.82;;
21297;SDS011;10808;48.010;11.326;2024-02-21T08:41:35;1.98;;;0.90;;
21297;SDS011;10808;48.010;11.326;2024-02-21T08:44:01;1.50;;;0.83;;
21297;SDS011;10808;48.010;11.326;2024-02-21T08:46:27;2.17;;;0.70;;
21297;SDS011;10808;48.010;11.326;2024-02-21T08:48:53;2.65;;;0.70;;
21297;SDS011;10808;48.010;11.326;2024-02-21T08:51:19;1.05;;;0.70;;
21297;SDS011;10808;48.010;11.326;2024-02-21T08:53:46;1.08;;;0.80;;
21297;SDS011;10808;48.010;11.326;2024-02-21T08:56:13;0.90;;;0.75;;
21297;SDS011;10808;48.010;11.326;2024-02-21T08:58:39;1.00;;;0.77;;
21297;SDS011;10808;48.010;11.326;2024-02-21T09:01:06;1.50;;;0.90;;
21297;SDS011;10808;48.010;11.326;2024-02-21T09:03:36;1.80;;;0.82;;
21297;SDS011;10808;48.010;11.326;2024-02-21T09:06:05;1.00;;;0.80;;
21297;SDS011;10808;48.010;11.326;2024-02-21T09:08:32;1.30;;;1.20;;
21297;SDS011;10808;48.010;11.326;2024-02-21T09:10:59;1.50;;;1.27;;
21297;SDS011;10808;48.010;11.326;2024-02-21T09:13:25;1.90;;;0.73;;
21297;SDS011;10808;48.010;11.326;2024-02-21T09:15:55;1.10;;;0.80;;
21297;SDS011;10808;48.010;11.326;2024-02-21T09:18:21;1.30;;;0.70;;
21297;SDS011;10808;48.010;11.326;2024-02-21T09:20:47;1.50;;;0.70;;
21297;SDS011;10808;48.010;11.326;2024-02-21T09:23:13;0.60;;;0.60;;
21297;SDS011;10808;48.010;11.326;2024-02-21T09:25:39;1.75;;;1.00;;
21297;SDS011;10808;48.010;11.326;2024-02-21T09:28:05;1.70;;;0.60;;
21297;SDS011;10808;48.010;11.326;2024-02-21T09:30:31;1.77;;;0.70;;
21297;SDS011;10808;48.010;11.326;2024-02-21T09:32:58;1.88;;;0.88;;
21297;SDS011;10808;48.010;11.326;2024-02-21T09:35:25;1.10;;;0.90;;
21297;SDS011;10808;48.010;11.326;2024-02-21T09:37:53;1.70;;;0.85;;
21297;SDS011;10808;48.010;11.326;2024-02-21T09:40:21;0.98;;;0.88;;
21297;SDS011;10808;48.010;11.326;2024-02-21T09:42:48;1.58;;;1.00;;
21297;SDS011;10808;48.010;11.326;2024-02-21T09:45:21;2.20;;;0.90;;
21297;SDS011;10808;48.010;11.326;2024-02-21T09:50:36;1.60;;;0.73;;
21297;SDS011;10808;48.010;11.326;2024-02-21T09:53:06;1.15;;;0.82;;
21297;SDS011;10808;48.010;11.326;2024-02-21T09:55:33;1.05;;;0.90;;
21297;SDS011;10808;48.010;11.326;2024-02-21T09:58:03;2.22;;;0.77;;
21297;SDS011;10808;48.010;11.326;2024-02-21T10:00:30;1.15;;;0.80;;
21297;SDS011;10808;48.010;11.326;2024-02-21T10:02:59;1.60;;;0.97;;
21297;SDS011;10808;48.010;11.326;2024-02-21T10:05:25;2.47;;;0.90;;
21297;SDS011;10808;48.010;11.326;2024-02-21T10:07:52;1.40;;;0.88;;
21297;SDS011;10808;48.010;11.326;2024-02-21T10:10:21;2.60;;;1.10;;
21297;SDS011;10808;48.010;11.326;2024-02-21T10:12:47;1.00;;;0.80;;
21297;SDS011;10808;48.010;11.326;2024-02-21T10:15:19;1.30;;;1.00;;
21297;SDS011;10808;48.010;11.326;2024-02-21T10:17:46;2.60;;;1.00;;
21297;SDS011;10808;48.010;11.326;2024-02-21T10:20:13;2.25;;;0.90;;
21297;SDS011;10808;48.010;11.326;2024-02-21T10:22:40;2.30;;;0.70;;
21297;SDS011;10808;48.010;11.326;2024-02-21T10:25:09;1.40;;;0.90;;
21297;SDS011;10808;48.010;11.326;2024-02-21T10:27:37;2.08;;;0.80;;
21297;SDS011;10808;48.010;11.326;2024-02-21T10:30:04;1.27;;;0.90;;
21297;SDS011;10808;48.010;11.326;2024-02-21T10:32:32;1.42;;;0.88;;
21297;SDS011;10808;48.010;11.326;2024-02-21T10:35:04;0.93;;;0.75;;
21297;SDS011;10808;48.010;11.326;2024-02-21T10:37:31;0.70;;;0.70;;
21297;SDS011;10808;48.010;11.326;2024-02-21T10:40:00;0.70;;;0.60;;
21297;SDS011;10808;48.010;11.326;2024-02-21T10:42:29;1.23;;;0.75;;
21297;SDS011;10808;48.010;11.326;2024-02-21T10:45:00;0.70;;;0.53;;
21297;SDS011;10808;48.010;11.326;2024-02-21T10:47:30;1.00;;;0.90;;
21297;SDS011;10808;48.010;11.326;2024-02-21T10:50:02;1.40;;;0.60;;
21297;SDS011;10808;48.010;11.326;2024-02-21T10:52:51;1.45;;;0.70;;
21297;SDS011;10808;48.010;11.326;2024-02-21T10:55:26;0.80;;;0.68;;
21297;SDS011;10808;48.010;11.326;2024-02-21T10:58:01;0.53;;;0.53;;
21297;SDS011;10808;48.010;11.326;2024-02-21T11:00:27;0.50;;;0.50;;
21297;SDS011;10808;48.010;11.326;2024-02-21T11:02:58;0.60;;;0.60;;
21297;SDS011;10808;48.010;11.326;2024-02-21T11:05:25;0.88;;;0.43;;
21297;SDS011;10808;48.010;11.326;2024-02-21T11:07:53;0.90;;;0.50;;
21297;SDS011;10808;48.010;11.326;2024-02-21T11:10:22;0.77;;;0.50;;
21297;SDS011;10808;48.010;11.326;2024-02-21T11:12:52;0.55;;;0.43;;
21297;SDS011;10808;48.010;11.326;2024-02-21T11:15:32;1.00;;;0.40;;
21297;SDS011;10808;48.010;11.326;2024-02-21T11:17:58;0.50;;;0.50;;
21297;SDS011;10808;48.010;11.326;2024-02-21T11:20:34;0.52;;;0.47;;
21297;SDS011;10808;48.010;11.326;2024-02-21T11:23:00;0.90;;;0.47;;
21297;SDS011;10808;48.010;11.326;2024-02-21T11:25:27;0.40;;;0.40;;
21297;SDS011;10808;48.010;11.326;2024-02-21T11:28:03;0.60;;;0.50;;
21297;SDS011;10808;48.010;11.326;2024-02-21T11:30:30;0.50;;;0.50;;
21297;SDS011;10808;48.010;11.326;2024-02-21T11:32:59;0.40;;;0.40;;
21297;SDS011;10808;48.010;11.326;2024-02-21T11:35:35;1.70;;;0.40;;
21297;SDS011;10808;48.010;11.326;2024-02-21T11:38:08;0.50;;;0.50;;
21297;SDS011;10808;48.010;11.326;2024-02-21T11:40:38;0.47;;;0.47;;
21297;SDS011;10808;48.010;11.326;2024-02-21T11:43:05;0.60;;;0.52;;
21297;SDS011;10808;48.010;11.326;2024-02-21T11:45:31;0.80;;;0.60;;
21297;SDS011;10808;48.010;11.326;2024-02-21T11:47:59;0.57;;;0.50;;
21297;SDS011;10808;48.010;11.326;2024-02-21T11:50:31;0.60;;;0.43;;
21297;SDS011;10808;48.010;11.326;2024-02-21T11:52:57;1.55;;;0.50;;
21297;SDS011;10808;48.010;11.326;2024-02-21T11:55:23;0.60;;;0.50;;
21297;SDS011;10808;48.010;11.326;2024-02-21T11:57:50;0.35;;;0.35;;
21297;SDS011;10808;48.010;11.326;2024-02-21T12:00:17;0.40;;;0.40;;
21297;SDS011;10808;48.010;11.326;2024-02-21T12:02:47;2.17;;;0.60;;
21297;SDS011;10808;48.010;11.326;2024-02-21T12:05:15;0.50;;;0.40;;
21297;SDS011;10808;48.010;11.326;2024-02-21T12:07:42;0.45;;;0.40;;
21297;SDS011;10808;48.010;11.326;2024-02-21T12:10:12;0.70;;;0.47;;
21297;SDS011;10808;48.010;11.326;2024-02-21T12:12:39;0.45;;;0.45;;
21297;SDS011;10808;48.010;11.326;2024-02-21T12:15:06;0.75;;;0.50;;
21297;SDS011;10808;48.010;11.326;2024-02-21T12:17:33;0.40;;;0.40;;
21297;SDS011;10808;48.010;11.326;2024-02-21T12:20:02;0.43;;;0.40;;
21297;SDS011;10808;48.010;11.326;2024-02-21T12:22:31;0.40;;;0.40;;
21297;SDS011;10808;48.010;11.326;2024-02-21T12:25:02;0.70;;;0.40;;
21297;SDS011;10808;48.010;11.326;2024-02-21T12:27:55;0.43;;;0.43;;
21297;SDS011;10808;48.010;11.326;2024-02-21T12:30:21;0.30;;;0.30;;
21297;SDS011;10808;48.010;11.326;2024-02-21T12:32:47;1.80;;;0.50;;
21297;SDS011;10808;48.010;11.326;2024-02-21T12:35:14;0.68;;;0.50;;
21297;SDS011;10808;48.010;11.326;2024-02-21T12:37:40;0.65;;;0.50;;
21297;SDS011;10808;48.010;11.326;2024-02-21T12:40:06;0.60;;;0.50;;
21297;SDS011;10808;48.010;11.326;2024-02-21T12:42:34;0.60;;;0.50;;
21297;SDS011;10808;48.010;11.326;2024-02-21T12:45:01;0.60;;;0.60;;
21297;SDS011;10808;48.010;11.326;2024-02-21T12:47:28;0.77;;;0.50;;
21297;SDS011;10808;48.010;11.326;2024-02-21T12:49:55;0.57;;;0.55;;
21297;SDS011;10808;48.010;11.326;2024-02-21T12:52:21;0.80;;;0.43;;
21297;SDS011;10808;48.010;11.326;2024-02-21T12:54:47;0.47;;;0.40;;
21297;SDS011;10808;48.010;11.326;2024-02-21T12:57:14;0.50;;;0.50;;
21297;SDS011;10808;48.010;11.326;2024-02-21T12:59:40;1.08;;;0.40;;
21297;SDS011;10808;48.010;11.326;2024-02-21T13:02:06;0.50;;;0.50;;
21297;SDS011;10808;48.010;11.326;2024-02-21T13:04:34;0.80;;;0.45;;
21297;SDS011;10808;48.010;11.326;2024-02-21T13:07:00;0.93;;;0.60;;
21297;SDS011;10808;48.010;11.326;2024-02-21T13:09:29;0.50;;;0.50;;
21297;SDS011;10808;48.010;11.326;2024-02-21T13:11:55;0.68;;;0.52;;
21297;SDS011;10808;48.010;11.326;2024-02-21T13:14:21;0.40;;;0.40;;
21297;SDS011;10808;48.010;11.326;2024-02-21T13:16:48;0.50;;;0.50;;
21297;SDS011;10808;48.010;11.326;2024-02-21T13:19:15;1.83;;;0.70;;
21297;SDS011;10808;48.010;11.326;2024-02-21T13:21:42;2.15;;;0.57;;
21297;SDS011;10808;48.010;11.326;2024-02-21T13:24:08;0.40;;;0.40;;
21297;SDS011;10808;48.010;11.326;2024-02-21T13:26:34;2.35;;;0.60;;
21297;SDS011;10808;48.010;11.326;2024-02-21T13:29:01;1.40;;;0.50;;
21297;SDS011;10808;48.010;11.326;2024-02-21T13:31:27;1.00;;;0.50;;
21297;SDS011;10808;48.010;11.326;2024-02-21T13:33:53;1.40;;;0.60;;
21297;SDS011;10808;48.010;11.326;2024-02-21T13:36:19;0.75;;;0.50;;
21297;SDS011;10808;48.010;11.326;2024-02-21T13:38:45;0.75;;;0.50;;
21297;SDS011;10808;48.010;11.326;2024-02-21T13:41:12;0.50;;;0.50;;
21297;SDS011;10808;48.010;11.326;2024-02-21T13:43:38;1.15;;;0.60;;
21297;SDS011;10808;48.010;11.326;2024-02-21T13:46:04;0.55;;;0.50;;
21297;SDS011;10808;48.010;11.326;2024-02-21T13:48:35;0.50;;;0.50;;
21297;SDS011;10808;48.010;11.326;2024-02-21T13:51:01;3.92;;;0.50;;
21297;SDS011;10808;48.010;11.326;2024-02-21T13:53:30;1.60;;;0.80;;
21297;SDS011;10808;48.010;11.326;2024-02-21T13:55:56;0.80;;;0.50;;
21297;SDS011;10808;48.010;11.326;2024-02-21T13:58:22;1.20;;;0.60;;
21297;SDS011;10808;48.010;11.326;2024-02-21T14:00:48;1.00;;;0.50;;
21297;SDS011;10808;48.010;11.326;2024-02-21T14:03:14;0.70;;;0.60;;
21297;SDS011;10808;48.010;11.326;2024-02-21T14:05:40;0.80;;;0.60;;
21297;SDS011;10808;48.010;11.326;2024-02-21T14:08:07;1.50;;;0.60;;
21297;SDS011;10808;48.010;11.326;2024-02-21T14:10:33;0.90;;;0.50;;
21297;SDS011;10808;48.010;11.326;2024-02-21T14:13:00;1.90;;;0.70;;
21297;SDS011;10808;48.010;11.326;2024-02-21T14:15:26;1.88;;;0.60;;
21297;SDS011;10808;48.010;11.326;2024-02-21T14:17:52;1.75;;;0.43;;
21297;SDS011;10808;48.010;11.326;2024-02-21T14:20:19;0.88;;;0.52;;
21297;SDS011;10808;48.010;11.326;2024-02-21T14:22:45;0.95;;;0.60;;
21297;SDS011;10808;48.010;11.326;2024-02-21T14:25:11;0.70;;;0.60;;
21297;SDS011;10808;48.010;11.326;2024-02-21T14:27:37;1.00;;;0.80;;
21297;SDS011;10808;48.010;11.326;2024-02-21T14:30:04;0.70;;;0.70;;
21297;SDS011;10808;48.010;11.326;2024-02-21T14:32:30;0.60;;;0.60;;
21297;SDS011;10808;48.010;11.326;2024-02-21T14:34:56;0.50;;;0.50;;